createdAt,value
2023-01-22T00:01:36.212Z,3.20
2023-01-22T00:04:03.362Z,7.73
2023-01-22T00:06:32.062Z,4.57
2023-01-22T00:09:03.907Z,6.33
2023-01-22T00:11:30.961Z,4.47
2023-01-22T00:13:57.756Z,5.73
2023-01-22T00:16:24.561Z,4.77
2023-01-22T00:18:51.265Z,5.23
2023-01-22T00:21:18.281Z,5.93
2023-01-22T00:23:45.199Z,7.50
2023-01-22T00:26:15.473Z,4.13
2023-01-22T00:31:31.923Z,5.20
2023-01-22T00:33:58.759Z,7.13
2023-01-22T00:36:25.569Z,4.17
2023-01-22T00:38:52.506Z,5.50
2023-01-22T00:41:20.141Z,6.30
2023-01-22T00:43:47.039Z,6.30
2023-01-22T00:46:16.981Z,4.23
2023-01-22T00:48:49.543Z,11.33
2023-01-22T00:51:16.831Z,4.60
2023-01-22T00:53:44.230Z,11.97
2023-01-22T00:56:48.603Z,8.10
2023-01-22T00:59:15.358Z,5.83
2023-01-22T01:01:43.307Z,3.83
2023-01-22T01:04:10.202Z,7.40
2023-01-22T01:06:37.056Z,6.00
2023-01-22T01:09:05.360Z,3.73
2023-01-22T01:11:35.171Z,4.73
2023-01-22T01:14:03.033Z,5.07
2023-01-22T01:16:32.031Z,3.93
2023-01-22T01:19:04.952Z,3.93
2023-01-22T01:21:32.372Z,3.13
2023-01-22T01:24:00.046Z,4.60
2023-01-22T01:26:27.311Z,7.97
2023-01-22T01:28:55.748Z,3.97
2023-01-22T01:31:24.334Z,7.37
2023-01-22T01:33:51.165Z,4.47
2023-01-22T01:36:45.856Z,7.67
2023-01-22T01:39:09.846Z,4.13
2023-01-22T01:41:36.747Z,4.57
2023-01-22T01:44:12.795Z,6.00
2023-01-22T01:46:55.984Z,5.50
2023-01-22T01:49:28.370Z,4.00
2023-01-22T01:52:00.124Z,6.73
2023-01-22T01:54:28.619Z,4.23
2023-01-22T01:57:00.963Z,5.50
2023-01-22T01:59:28.138Z,5.23
2023-01-22T02:01:55.846Z,6.87
2023-01-22T02:04:24.030Z,5.83
2023-01-22T02:06:50.927Z,5.20
2023-01-22T02:09:17.792Z,8.03
2023-01-22T02:11:44.842Z,5.47
2023-01-22T02:14:18.576Z,5.30
2023-01-22T02:16:45.468Z,7.37
2023-01-22T02:19:12.248Z,8.27
2023-01-22T02:21:44.506Z,5.47
2023-01-22T02:24:16.791Z,9.20
2023-01-22T02:26:45.571Z,7.53
2023-01-22T02:29:17.103Z,11.60
2023-01-22T02:31:44.145Z,7.17
2023-01-22T02:34:11.242Z,9.07
2023-01-22T02:36:39.622Z,7.23
2023-01-22T02:39:07.287Z,5.93
2023-01-22T02:41:34.179Z,6.07
2023-01-22T02:44:01.088Z,5.80
2023-01-22T02:46:28.442Z,8.93
2023-01-22T02:48:55.203Z,9.10
2023-01-22T02:51:22.474Z,7.77
2023-01-22T02:53:50.142Z,6.57
2023-01-22T02:56:17.559Z,4.13
2023-01-22T02:58:44.370Z,4.43
2023-01-22T03:01:20.901Z,7.20
2023-01-22T03:03:52.597Z,5.50
2023-01-22T03:06:22.137Z,5.10
2023-01-22T03:08:59.895Z,5.17
2023-01-22T03:11:30.340Z,8.57
2023-01-22T03:14:23.451Z,4.97
2023-01-22T03:17:08.841Z,7.30
2023-01-22T03:19:54.746Z,6.13
2023-01-22T03:22:21.888Z,5.40
2023-01-22T03:24:51.222Z,5.33
2023-01-22T03:27:22.144Z,6.83
2023-01-22T03:29:49.291Z,6.47
2023-01-22T03:32:18.088Z,6.93
2023-01-22T03:34:44.980Z,6.30
2023-01-22T03:37:15.166Z,8.10
2023-01-22T03:39:44.572Z,8.57
2023-01-22T03:42:17.931Z,8.27
2023-01-22T03:44:45.398Z,11.43
2023-01-22T03:47:12.594Z,9.93
2023-01-22T03:49:39.589Z,11.77
2023-01-22T03:52:06.603Z,9.90
2023-01-22T03:54:33.679Z,8.17
2023-01-22T03:57:03.319Z,8.90
2023-01-22T03:59:33.358Z,11.87
2023-01-22T04:02:00.292Z,9.60
2023-01-22T04:04:28.569Z,10.90
2023-01-22T04:06:55.435Z,8.03
2023-01-22T04:09:23.003Z,8.60
2023-01-22T04:11:50.370Z,10.03
2023-01-22T04:14:18.417Z,9.40
2023-01-22T04:16:54.978Z,11.53
2023-01-22T04:19:40.548Z,14.20
2023-01-22T04:22:26.131Z,7.13
2023-01-22T04:24:53.696Z,17.47
2023-01-22T04:27:20.711Z,16.57
2023-01-22T04:29:50.158Z,16.73
2023-01-22T04:32:18.654Z,12.07
2023-01-22T04:35:05.062Z,14.77
2023-01-22T04:37:38.752Z,12.93
2023-01-22T04:40:06.154Z,13.70
2023-01-22T04:42:36.109Z,17.30
2023-01-22T04:45:03.607Z,15.03
2023-01-22T04:47:31.319Z,18.67
2023-01-22T04:49:58.203Z,10.90
2023-01-22T04:52:25.102Z,15.03
2023-01-22T04:54:53.411Z,16.23
2023-01-22T04:57:20.279Z,15.53
2023-01-22T04:59:48.770Z,15.57
2023-01-22T05:02:16.547Z,14.77
2023-01-22T05:04:43.410Z,18.40
2023-01-22T05:07:10.140Z,13.60
2023-01-22T05:09:37.985Z,18.57
2023-01-22T05:12:05.092Z,17.63
2023-01-22T05:14:38.551Z,14.07
2023-01-22T05:17:06.175Z,16.70
2023-01-22T05:19:35.550Z,16.87
2023-01-22T05:22:05.498Z,14.33
2023-01-22T05:24:33.057Z,12.83
2023-01-22T05:27:00.484Z,20.67
2023-01-22T05:29:33.939Z,13.60
2023-01-22T05:32:17.931Z,10.37
2023-01-22T05:34:50.868Z,12.23
2023-01-22T05:37:17.765Z,9.53
2023-01-22T05:39:44.618Z,14.20
2023-01-22T05:42:16.024Z,18.77
2023-01-22T05:44:45.311Z,13.30
2023-01-22T05:47:14.261Z,9.33
2023-01-22T05:49:59.377Z,17.33
2023-01-22T05:52:45.224Z,11.70
2023-01-22T05:55:33.290Z,14.13
2023-01-22T05:58:01.762Z,16.23
2023-01-22T06:00:28.641Z,12.93
2023-01-22T06:03:01.037Z,15.77
2023-01-22T06:05:31.137Z,18.90
2023-01-22T06:08:03.897Z,8.40
2023-01-22T06:10:38.897Z,17.67
2023-01-22T06:13:05.787Z,11.73
2023-01-22T06:15:33.448Z,15.77
2023-01-22T06:18:12.790Z,16.40
2023-01-22T06:20:39.823Z,9.40
2023-01-22T06:23:08.516Z,19.97
2023-01-22T06:25:35.364Z,18.40
2023-01-22T06:28:10.971Z,11.90
2023-01-22T06:30:39.698Z,15.80
2023-01-22T06:33:06.690Z,14.50
2023-01-22T06:35:33.520Z,14.70
2023-01-22T06:38:00.763Z,14.93
2023-01-22T06:40:31.990Z,10.50
2023-01-22T06:43:02.629Z,13.90
2023-01-22T06:45:29.844Z,11.30
2023-01-22T06:48:01.222Z,15.93
2023-01-22T06:50:28.237Z,16.73
2023-01-22T06:52:56.143Z,22.10
2023-01-22T06:55:22.945Z,16.00
2023-01-22T06:57:50.258Z,16.53
2023-01-22T07:00:18.304Z,14.73
2023-01-22T07:02:45.341Z,12.10
2023-01-22T07:05:12.228Z,14.50
2023-01-22T07:07:39.085Z,14.80
2023-01-22T07:10:06.119Z,17.00
2023-01-22T07:12:33.421Z,17.17
2023-01-22T07:15:00.184Z,16.77
2023-01-22T07:17:27.042Z,14.90
2023-01-22T07:19:53.799Z,14.43
2023-01-22T07:22:38.819Z,21.27
2023-01-22T07:25:06.153Z,21.43
2023-01-22T07:27:34.989Z,16.53
2023-01-22T07:30:01.908Z,13.37
2023-01-22T07:32:28.674Z,19.13
2023-01-22T07:34:55.443Z,12.83
2023-01-22T07:37:22.234Z,16.73
2023-01-22T07:39:49.191Z,18.80
2023-01-22T07:42:15.924Z,13.40
2023-01-22T07:44:42.697Z,23.77
2023-01-22T07:47:09.739Z,18.43
2023-01-22T07:49:36.526Z,16.50
2023-01-22T07:52:03.378Z,30.33
2023-01-22T07:54:30.388Z,15.53
2023-01-22T07:56:57.114Z,22.60
2023-01-22T07:59:23.870Z,13.93
2023-01-22T08:01:50.610Z,12.80
2023-01-22T08:04:17.399Z,17.63
2023-01-22T08:06:44.155Z,13.37
2023-01-22T08:09:10.891Z,18.80
2023-01-22T08:11:37.640Z,19.10
2023-01-22T08:14:04.390Z,19.03
2023-01-22T08:16:31.313Z,22.00
2023-01-22T08:18:58.228Z,15.47
2023-01-22T08:21:25.019Z,15.70
2023-01-22T08:23:51.937Z,11.07
2023-01-22T08:26:18.717Z,16.30
2023-01-22T08:28:45.475Z,13.03
2023-01-22T08:31:26.465Z,20.77
2023-01-22T08:33:54.540Z,14.80
2023-01-22T08:36:21.396Z,11.80
2023-01-22T08:39:06.867Z,13.27
2023-01-22T08:41:57.372Z,13.33
2023-01-22T08:44:25.307Z,15.93
2023-01-22T08:46:52.635Z,16.97
2023-01-22T08:49:21.475Z,16.03
2023-01-22T08:51:50.476Z,11.80
2023-01-22T08:54:18.289Z,16.70
2023-01-22T08:56:45.171Z,17.03
2023-01-22T08:59:11.913Z,14.53
2023-01-22T09:01:38.650Z,14.87
2023-01-22T09:04:10.578Z,11.57
2023-01-22T09:06:39.304Z,15.20
2023-01-22T09:09:06.608Z,15.47
2023-01-22T09:11:34.100Z,12.87
2023-01-22T09:14:00.884Z,18.83
2023-01-22T09:19:31.403Z,12.10
2023-01-22T09:21:58.204Z,12.40
2023-01-22T09:24:25.044Z,19.73
2023-01-22T09:26:51.805Z,12.20
2023-01-22T09:29:18.502Z,14.13
2023-01-22T09:31:45.464Z,19.37
2023-01-22T09:34:12.215Z,20.07
2023-01-22T09:36:39.235Z,10.97
2023-01-22T09:39:06.061Z,11.17
2023-01-22T09:41:36.953Z,11.20
2023-01-22T09:44:15.069Z,14.17
2023-01-22T09:46:47.240Z,11.30
2023-01-22T09:52:06.377Z,13.77
2023-01-22T09:54:33.938Z,11.00
2023-01-22T09:57:31.252Z,12.77
2023-01-22T09:59:58.782Z,16.63
2023-01-22T10:03:00.761Z,9.97
2023-01-22T10:05:30.023Z,10.97
2023-01-22T10:08:19.839Z,10.73
2023-01-22T10:10:47.074Z,13.40
2023-01-22T10:13:21.073Z,12.17
2023-01-22T10:15:49.716Z,13.37
2023-01-22T10:18:42.026Z,14.90
2023-01-22T10:24:14.626Z,12.75
2023-01-22T10:26:54.364Z,9.40
2023-01-22T10:29:30.064Z,7.43
2023-01-22T10:31:59.682Z,12.53
2023-01-22T10:34:32.494Z,9.67
2023-01-22T10:37:19.665Z,11.40
2023-01-22T10:39:48.063Z,11.73
2023-01-22T10:42:18.773Z,10.47
2023-01-22T10:44:46.067Z,12.63
2023-01-22T10:47:26.670Z,8.73
2023-01-22T10:50:06.322Z,9.80
2023-01-22T10:52:38.742Z,9.07
2023-01-22T10:55:07.541Z,14.90
2023-01-22T10:57:37.743Z,17.93
2023-01-22T11:00:13.514Z,10.67
2023-01-22T11:02:46.215Z,13.63
2023-01-22T11:05:26.735Z,14.07
2023-01-22T11:08:19.244Z,11.20
2023-01-22T11:10:54.524Z,14.00
2023-01-22T11:13:43.356Z,14.87
2023-01-22T11:16:20.703Z,9.47
2023-01-22T11:19:11.741Z,13.20
2023-01-22T11:21:45.858Z,18.03
2023-01-22T11:24:12.594Z,9.57
2023-01-22T11:26:57.796Z,13.70
2023-01-22T11:29:58.617Z,18.33
2023-01-22T11:32:59.208Z,12.93
2023-01-22T11:35:51.908Z,14.07
2023-01-22T11:38:53.417Z,15.40
2023-01-22T11:41:56.071Z,14.40
2023-01-22T11:44:44.529Z,12.27
2023-01-22T11:47:29.651Z,14.87
2023-01-22T11:50:05.473Z,13.40
2023-01-22T11:52:47.996Z,17.13
2023-01-22T11:55:31.612Z,13.80
2023-01-22T11:58:18.649Z,12.73
2023-01-22T12:00:50.616Z,15.73
2023-01-22T12:06:24.040Z,16.40
2023-01-22T12:09:00.778Z,14.27
2023-01-22T12:12:04.937Z,9.03
2023-01-22T12:15:09.451Z,13.27
2023-01-22T12:18:00.807Z,11.43
2023-01-22T12:20:49.277Z,10.37
2023-01-22T12:23:38.791Z,14.37
2023-01-22T12:26:26.213Z,11.27
2023-01-22T12:29:07.867Z,15.87
2023-01-22T12:31:48.173Z,25.40
2023-01-22T12:34:25.691Z,12.13
2023-01-22T12:36:54.621Z,16.93
2023-01-22T12:39:35.706Z,16.73
2023-01-22T12:42:26.114Z,12.73
2023-01-22T12:45:35.544Z,14.87
2023-01-22T12:48:18.325Z,15.37
2023-01-22T12:50:54.083Z,12.57
2023-01-22T12:53:30.060Z,9.93
2023-01-22T12:55:59.171Z,10.83
2023-01-22T12:58:28.618Z,13.87
2023-01-22T13:01:03.267Z,18.40
2023-01-22T13:03:32.135Z,14.73
2023-01-22T13:06:01.233Z,15.07
2023-01-22T13:08:39.571Z,18.83
2023-01-22T13:11:12.856Z,13.27
2023-01-22T13:13:44.812Z,10.30
2023-01-22T13:16:20.832Z,9.73
2023-01-22T13:18:53.994Z,14.75
2023-01-22T13:21:39.562Z,19.38
2023-01-22T13:24:14.285Z,11.18
2023-01-22T13:26:41.719Z,10.17
2023-01-22T13:29:26.743Z,10.57
2023-01-22T13:31:59.804Z,9.47
2023-01-22T13:34:28.687Z,9.40
2023-01-22T13:36:55.877Z,9.20
2023-01-22T13:39:31.913Z,9.17
2023-01-22T13:42:02.015Z,15.27
2023-01-22T13:44:35.768Z,10.77
2023-01-22T13:47:03.811Z,13.30
2023-01-22T13:49:33.021Z,14.30
2023-01-22T13:52:05.115Z,14.63
2023-01-22T13:54:36.120Z,9.02
2023-01-22T13:57:03.553Z,13.60
2023-01-22T13:59:35.190Z,14.73
2023-01-22T14:02:20.251Z,12.60
2023-01-22T14:04:48.130Z,9.33
2023-01-22T14:07:29.860Z,8.63
2023-01-22T14:09:58.284Z,12.07
2023-01-22T14:12:26.942Z,9.07
2023-01-22T14:14:54.267Z,9.87
2023-01-22T14:17:30.045Z,8.27
2023-01-22T14:20:02.018Z,11.53
2023-01-22T14:22:47.951Z,11.87
2023-01-22T14:25:14.749Z,13.93
2023-01-22T14:27:46.700Z,11.05
2023-01-22T14:30:17.191Z,7.60
2023-01-22T14:32:45.391Z,8.23
2023-01-22T14:35:20.969Z,10.87
2023-01-22T14:37:48.122Z,6.23
2023-01-22T14:40:17.304Z,6.47
2023-01-22T14:42:45.200Z,10.48
2023-01-22T14:45:12.375Z,7.05
2023-01-22T14:47:39.646Z,4.93
2023-01-22T14:50:07.408Z,6.70
2023-01-22T14:52:34.298Z,9.23
2023-01-22T14:55:01.066Z,4.43
2023-01-22T14:57:27.881Z,4.13
2023-01-22T14:59:54.656Z,6.17
2023-01-22T15:02:21.491Z,10.10
2023-01-22T15:04:48.352Z,5.00
2023-01-22T15:07:15.163Z,4.03
2023-01-22T15:09:41.954Z,9.50
2023-01-22T15:12:08.757Z,3.13
2023-01-22T15:14:35.735Z,3.67
2023-01-22T15:19:46.685Z,3.77
2023-01-22T15:22:13.737Z,3.43
2023-01-22T15:24:40.636Z,3.40
2023-01-22T15:27:07.711Z,2.50
2023-01-22T15:29:34.475Z,4.93
2023-01-22T15:32:01.188Z,5.00
2023-01-22T15:34:27.985Z,3.23
2023-01-22T15:36:54.727Z,3.37
2023-01-22T15:39:21.693Z,3.73
2023-01-22T15:41:48.579Z,3.73
2023-01-22T15:44:15.401Z,4.10
2023-01-22T15:46:43.402Z,3.93
2023-01-22T15:49:12.306Z,5.13
2023-01-22T15:51:41.007Z,6.53
2023-01-22T15:54:09.166Z,4.43
2023-01-22T15:56:38.016Z,3.97
2023-01-22T15:59:05.457Z,4.57
2023-01-22T16:01:32.581Z,4.30
2023-01-22T16:04:01.057Z,3.53
2023-01-22T16:06:29.876Z,3.43
2023-01-22T16:08:58.172Z,5.00
2023-01-22T16:14:10.662Z,4.07
2023-01-22T16:16:38.485Z,5.73
2023-01-22T16:19:07.459Z,6.33
2023-01-22T16:21:34.250Z,5.83
2023-01-22T16:24:01.913Z,6.80
2023-01-22T16:26:31.813Z,4.80
2023-01-22T16:29:00.373Z,6.53
2023-01-22T16:31:29.826Z,6.00
2023-01-22T16:33:59.430Z,7.23
2023-01-22T16:36:29.113Z,8.87
2023-01-22T16:38:56.400Z,6.70
2023-01-22T16:41:37.033Z,6.40
2023-01-22T16:44:18.266Z,6.33
2023-01-22T16:46:47.753Z,7.03
2023-01-22T16:49:19.021Z,7.63
2023-01-22T16:51:48.025Z,3.73
2023-01-22T16:54:42.708Z,4.70
2023-01-22T16:57:09.874Z,5.33
2023-01-22T16:59:37.986Z,4.33
2023-01-22T17:02:07.788Z,5.83
2023-01-22T17:04:34.645Z,6.80
2023-01-22T17:07:01.581Z,4.37
2023-01-22T17:09:31.451Z,5.60
2023-01-22T17:12:00.677Z,6.40
2023-01-22T17:14:29.798Z,4.35
2023-01-22T17:16:58.021Z,3.50
2023-01-22T17:19:25.189Z,4.30
2023-01-22T17:22:12.343Z,4.37
2023-01-22T17:24:40.945Z,4.00
2023-01-22T17:27:08.023Z,4.67
2023-01-22T17:29:36.405Z,3.87
2023-01-22T17:32:04.278Z,4.67
2023-01-22T17:34:31.177Z,5.30
2023-01-22T17:36:57.967Z,4.53
2023-01-22T17:39:25.373Z,5.23
2023-01-22T17:41:52.157Z,3.13
2023-01-22T17:44:18.911Z,5.53
2023-01-22T17:46:45.804Z,5.77
2023-01-22T17:49:12.518Z,4.63
2023-01-22T17:51:39.422Z,4.20
2023-01-22T17:54:06.318Z,3.53
2023-01-22T17:56:40.190Z,5.47
2023-01-22T17:59:07.552Z,4.67
2023-01-22T18:01:36.797Z,3.67
2023-01-22T18:04:06.662Z,3.40
2023-01-22T18:06:34.263Z,6.57
2023-01-22T18:09:01.141Z,3.47
2023-01-22T18:11:29.777Z,6.63
2023-01-22T18:14:11.300Z,2.77
2023-01-22T18:16:57.116Z,3.37
2023-01-22T18:19:24.748Z,5.10
2023-01-22T18:21:52.041Z,4.88
2023-01-22T18:24:22.970Z,5.20
2023-01-22T18:26:50.609Z,6.05
2023-01-22T18:29:17.471Z,5.17
2023-01-22T18:34:29.204Z,5.73
2023-01-22T18:36:56.018Z,2.97
2023-01-22T18:39:23.351Z,4.88
2023-01-22T18:41:50.694Z,5.93
2023-01-22T18:44:19.558Z,5.73
2023-01-22T18:46:48.523Z,6.83
2023-01-22T18:49:18.826Z,4.73
2023-01-22T18:52:04.506Z,5.73
2023-01-22T18:54:49.764Z,5.77
2023-01-22T18:57:16.563Z,6.03
2023-01-22T18:59:43.668Z,4.80
2023-01-22T19:02:13.230Z,8.63
2023-01-22T19:04:40.113Z,7.73
2023-01-22T19:07:06.926Z,5.70
2023-01-22T19:09:34.437Z,6.10
2023-01-22T19:12:01.323Z,4.83
2023-01-22T19:14:28.131Z,7.53
2023-01-22T19:16:55.062Z,5.37
2023-01-22T19:19:22.935Z,5.87
2023-01-22T19:21:53.439Z,5.53
2023-01-22T19:24:24.935Z,6.17
2023-01-22T19:26:52.367Z,6.40
2023-01-22T19:29:19.447Z,7.73
2023-01-22T19:31:48.472Z,6.33
2023-01-22T19:34:33.944Z,6.50
2023-01-22T19:37:06.393Z,10.13
2023-01-22T19:39:51.969Z,8.63
2023-01-22T19:42:18.812Z,5.60
2023-01-22T19:44:45.684Z,5.93
2023-01-22T19:47:13.871Z,5.03
2023-01-22T19:49:40.674Z,5.17
2023-01-22T19:52:08.495Z,5.17
2023-01-22T19:54:54.319Z,5.97
2023-01-22T19:57:21.441Z,4.73
2023-01-22T19:59:52.920Z,5.40
2023-01-22T20:02:20.912Z,5.00
2023-01-22T20:04:47.792Z,5.00
2023-01-22T20:07:14.584Z,5.53
2023-01-22T20:09:41.412Z,5.00
2023-01-22T20:12:10.515Z,5.37
2023-01-22T20:14:41.374Z,9.83
2023-01-22T20:17:08.186Z,4.60
2023-01-22T20:19:38.171Z,3.97
2023-01-22T20:22:07.120Z,4.23
2023-01-22T20:24:34.737Z,3.87
2023-01-22T20:27:01.628Z,3.97
2023-01-22T20:29:28.455Z,3.87
2023-01-22T20:32:14.323Z,4.33
2023-01-22T20:34:42.957Z,4.20
2023-01-22T20:37:09.785Z,4.57
2023-01-22T20:39:37.118Z,5.37
2023-01-22T20:42:03.875Z,4.50
2023-01-22T20:44:32.170Z,5.50
2023-01-22T20:46:59.020Z,5.13
2023-01-22T20:49:25.868Z,5.50
2023-01-22T20:51:53.343Z,4.70
2023-01-22T20:54:20.263Z,4.60
2023-01-22T20:56:47.228Z,4.57
2023-01-22T20:59:18.285Z,4.40
2023-01-22T21:01:45.594Z,4.83
2023-01-22T21:04:13.382Z,5.37
2023-01-22T21:06:40.238Z,6.57
2023-01-22T21:09:09.081Z,5.30
2023-01-22T21:11:38.433Z,5.73
2023-01-22T21:14:07.724Z,7.60
2023-01-22T21:16:37.822Z,6.13
2023-01-22T21:19:08.299Z,6.23
2023-01-22T21:21:36.019Z,6.83
2023-01-22T21:24:02.902Z,7.57
2023-01-22T21:26:32.373Z,7.53
2023-01-22T21:29:02.529Z,7.73
2023-01-22T21:31:29.783Z,6.97
2023-01-22T21:34:04.032Z,8.87
2023-01-22T21:36:51.092Z,9.33
2023-01-22T21:39:20.298Z,9.37
2023-01-22T21:41:47.307Z,8.07
2023-01-22T21:44:35.856Z,8.30
2023-01-22T21:47:03.715Z,10.87
2023-01-22T21:49:31.354Z,9.20
2023-01-22T21:52:01.846Z,8.17
2023-01-22T21:54:37.369Z,9.13
2023-01-22T21:57:05.512Z,8.57
2023-01-22T21:59:32.517Z,12.53
2023-01-22T22:01:59.406Z,10.63
2023-01-22T22:04:27.856Z,10.47
2023-01-22T22:06:54.802Z,9.40
2023-01-22T22:09:24.580Z,10.67
2023-01-22T22:11:54.903Z,9.80
2023-01-22T22:14:21.727Z,10.47
2023-01-22T22:17:07.777Z,12.90
2023-01-22T22:19:34.744Z,12.97
2023-01-22T22:22:01.552Z,13.30
2023-01-22T22:24:28.377Z,9.40
2023-01-22T22:26:55.095Z,13.17
2023-01-22T22:29:21.888Z,11.97
2023-01-22T22:31:48.797Z,13.30
2023-01-22T22:34:15.631Z,10.77
2023-01-22T22:36:42.390Z,11.10
2023-01-22T22:39:10.222Z,13.57
2023-01-22T22:41:38.625Z,12.07
2023-01-22T22:44:07.580Z,12.73
2023-01-22T22:46:39.037Z,11.98
2023-01-22T22:49:06.751Z,13.37
2023-01-22T22:51:39.189Z,11.77
2023-01-22T22:54:11.794Z,12.50
2023-01-22T22:56:38.704Z,12.33
2023-01-22T22:59:05.505Z,12.87
2023-01-22T23:01:33.298Z,13.10
2023-01-22T23:04:01.138Z,11.43
2023-01-22T23:06:30.412Z,11.87
2023-01-22T23:09:29.801Z,14.33
2023-01-22T23:11:58.526Z,12.10
2023-01-22T23:14:26.254Z,12.93
2023-01-22T23:16:53.248Z,12.40
2023-01-22T23:19:24.443Z,11.13
2023-01-22T23:21:56.031Z,12.47
2023-01-22T23:24:23.601Z,12.43
2023-01-22T23:26:51.210Z,11.40
2023-01-22T23:29:22.906Z,14.77
2023-01-22T23:31:50.512Z,14.27
2023-01-22T23:34:20.542Z,11.00
2023-01-22T23:36:48.391Z,10.87
2023-01-22T23:39:17.409Z,13.03
2023-01-22T23:41:44.839Z,12.03
2023-01-22T23:44:11.957Z,11.70
2023-01-22T23:46:38.898Z,12.93
2023-01-22T23:49:05.843Z,15.73
2023-01-22T23:51:33.143Z,11.93
2023-01-22T23:53:59.892Z,10.97
2023-01-22T23:56:31.978Z,12.43
2023-01-22T23:58:59.940Z,12.93
